Time;durP1;ratioP1;P1;durP2;ratioP2;P2;SDS_P1;SDS_P2;PMS_P1;PMS_P2;Temp;Humidity;BMP_temperature;BMP_pressure;BME280_temperature;BME280_humidity;BME280_pressure;Samples;Min_cycle;Max_cycle;Signal;HPM_P1;HPM_P2
2020/12/08 00:02:15;;;;;;;11.07;5.53;;;6.20;83.60;;;;;;5000987;28;20112;-49
2020/12/08 00:04:42;;;;;;;9.80;5.53;;;6.20;83.10;;;;;;5033820;28;20462;-49
2020/12/08 00:07:09;;;;;;;7.85;4.93;;;6.10;83.50;;;;;;5030232;28;20060;-49
2020/12/08 00:09:35;;;;;;;9.20;4.95;;;6.10;84.00;;;;;;5013753;28;20057;-49
2020/12/08 00:12:02;;;;;;;6.10;4.38;;;6.00;84.20;;;;;;5013846;28;20034;-49
2020/12/08 00:14:28;;;;;;;7.20;4.20;;;6.00;84.30;;;;;;5013969;28;20029;-49
2020/12/08 00:16:54;;;;;;;7.65;4.28;;;5.90;84.40;;;;;;5013813;28;20037;-49
2020/12/08 00:19:20;;;;;;;7.68;4.55;;;5.90;84.10;;;;;;5048627;28;20044;-48
2020/12/08 00:21:46;;;;;;;7.03;4.82;;;5.90;84.70;;;;;;5055672;28;20041;-48
2020/12/08 00:24:13;;;;;;;7.45;4.53;;;5.90;84.80;;;;;;5019938;28;20132;-49
2020/12/08 00:26:40;;;;;;;6.32;4.70;;;5.90;84.00;;;;;;5055219;28;20166;-49
2020/12/08 00:29:07;;;;;;;7.95;5.10;;;5.80;84.50;;;;;;5055654;28;20055;-49
2020/12/08 00:31:33;;;;;;;7.22;4.93;;;5.70;84.70;;;;;;5037074;28;20041;-48
2020/12/08 00:33:59;;;;;;;7.90;4.50;;;5.90;84.30;;;;;;5055154;28;20033;-49
2020/12/08 00:36:25;;;;;;;7.10;5.07;;;6.00;83.80;;;;;;5055381;28;20476;-49
2020/12/08 00:38:51;;;;;;;6.82;4.47;;;6.00;83.20;;;;;;5055124;28;20037;-49
2020/12/08 00:41:18;;;;;;;6.90;4.65;;;5.90;83.40;;;;;;5054910;28;20463;-49
2020/12/08 00:43:45;;;;;;;7.22;5.00;;;5.90;83.80;;;;;;5055137;28;20100;-48
2020/12/08 00:46:12;;;;;;;9.35;5.10;;;5.90;83.60;;;;;;5055160;28;20115;-49
2020/12/08 00:48:41;;;;;;;7.60;5.38;;;5.90;83.70;;;;;;5036609;28;20041;-48
2020/12/08 00:51:07;;;;;;;7.68;4.45;;;5.70;84.80;;;;;;4963903;28;20042;-49
2020/12/08 00:53:33;;;;;;;7.03;5.07;;;5.60;85.10;;;;;;5012872;28;20124;-49
2020/12/08 00:55:59;;;;;;;8.43;4.88;;;5.60;85.20;;;;;;5012963;28;20042;-49
2020/12/08 00:58:26;;;;;;;5.43;4.22;;;5.60;85.30;;;;;;5012817;28;20057;-49
2020/12/08 01:00:52;;;;;;;6.18;4.43;;;5.60;85.70;;;;;;5012599;28;20133;-49
2020/12/08 01:03:18;;;;;;;9.55;5.75;;;5.70;84.60;;;;;;5012890;28;20042;-49
2020/12/08 01:05:44;;;;;;;8.63;5.63;;;5.50;85.00;;;;;;5012677;28;20116;-48
2020/12/08 01:08:09;;;;;;;8.40;4.78;;;5.40;85.80;;;;;;5023937;28;20111;-48
2020/12/08 01:10:35;;;;;;;7.57;4.80;;;5.30;85.90;;;;;;5032360;28;20048;-49
2020/12/08 01:13:01;;;;;;;7.05;4.85;;;5.30;86.00;;;;;;5031978;28;20033;-49
2020/12/08 01:15:27;;;;;;;7.22;4.78;;;5.30;86.00;;;;;;5032124;28;20041;-49
2020/12/08 01:17:53;;;;;;;7.65;5.18;;;5.40;85.80;;;;;;5032058;28;20120;-48
2020/12/08 01:20:19;;;;;;;11.07;7.10;;;5.40;85.50;;;;;;5032459;28;20148;-49
2020/12/08 01:22:45;;;;;;;10.30;5.25;;;5.50;85.00;;;;;;5064738;28;20074;-49
2020/12/08 01:25:11;;;;;;;12.05;6.30;;;5.50;84.90;;;;;;5074388;28;20055;-49
2020/12/08 01:27:36;;;;;;;10.32;5.88;;;5.40;85.20;;;;;;5074192;28;20036;-49
2020/12/08 01:30:04;;;;;;;10.40;6.63;;;5.50;85.10;;;;;;5073807;28;20434;-48
2020/12/08 01:32:30;;;;;;;10.80;5.60;;;5.40;84.80;;;;;;5074189;28;20077;-49
2020/12/08 01:34:55;;;;;;;10.60;6.20;;;5.30;85.60;;;;;;5074010;28;20126;-49
2020/12/08 01:37:21;;;;;;;12.13;6.93;;;5.30;85.10;;;;;;5073953;28;20028;-49
2020/12/08 01:39:47;;;;;;;12.10;6.63;;;5.50;84.70;;;;;;5073935;28;20472;-49
2020/12/08 01:42:13;;;;;;;12.10;6.68;;;5.40;85.20;;;;;;5073637;28;20036;-49
2020/12/08 01:44:38;;;;;;;12.52;6.57;;;5.30;84.90;;;;;;5073832;28;20162;-48
2020/12/08 01:47:05;;;;;;;19.38;10.68;;;5.40;85.00;;;;;;5073854;28;20037;-48
2020/12/08 01:49:31;;;;;;;13.50;8.18;;;5.50;84.20;;;;;;5073801;28;20090;-49
2020/12/08 01:51:58;;;;;;;13.70;8.18;;;5.60;84.00;;;;;;5073562;28;20444;-49
2020/12/08 01:54:25;;;;;;;9.60;6.15;;;5.60;83.40;;;;;;5073766;28;20028;-49
2020/12/08 01:56:50;;;;;;;9.88;5.90;;;5.60;83.20;;;;;;5073779;28;20032;-49
2020/12/08 01:59:16;;;;;;;8.43;5.72;;;5.50;83.30;;;;;;5073408;28;20036;-48
2020/12/08 02:01:42;;;;;;;8.45;5.90;;;5.30;84.00;;;;;;5073766;28;20054;-49
2020/12/08 02:04:08;;;;;;;8.93;6.88;;;5.10;85.00;;;;;;5073852;28;20058;-49
2020/12/08 02:06:33;;;;;;;11.05;7.28;;;5.00;85.60;;;;;;5073426;28;20028;-48
2020/12/08 02:08:59;;;;;;;11.70;7.97;;;5.00;85.70;;;;;;5073574;28;20128;-49
2020/12/08 02:11:25;;;;;;;13.45;7.75;;;5.00;85.50;;;;;;5073551;28;20373;-49
2020/12/08 02:13:51;;;;;;;17.98;8.85;;;4.80;86.30;;;;;;5073402;28;20056;-49
2020/12/08 02:16:16;;;;;;;9.98;7.47;;;4.90;86.40;;;;;;5073293;28;20067;-48
2020/12/08 02:18:42;;;;;;;9.23;7.10;;;5.00;85.90;;;;;;5072643;28;20408;-48
2020/12/08 02:21:08;;;;;;;11.68;6.38;;;5.00;85.30;;;;;;5021197;28;20048;-49
2020/12/08 02:23:34;;;;;;;8.85;5.93;;;5.10;85.20;;;;;;5073610;28;20032;-48
2020/12/08 02:26:05;;;;;;;8.80;6.20;;;5.20;84.60;;;;;;5073364;28;20035;-49
2020/12/08 02:28:32;;;;;;;9.38;5.70;;;5.20;84.60;;;;;;5073282;28;20038;-48
2020/12/08 02:30:59;;;;;;;7.72;5.47;;;5.20;84.50;;;;;;5073255;28;20035;-48
2020/12/08 02:33:27;;;;;;;8.30;5.70;;;5.40;84.10;;;;;;5073231;28;20028;-48
2020/12/08 02:35:56;;;;;;;9.85;5.75;;;5.30;83.90;;;;;;5073250;28;20514;-49
2020/12/08 02:38:23;;;;;;;7.45;5.55;;;5.30;83.60;;;;;;5073078;28;20036;-48
2020/12/08 02:40:49;;;;;;;7.93;5.47;;;5.30;83.60;;;;;;5073077;28;20036;-48
2020/12/08 02:43:15;;;;;;;8.80;6.43;;;5.30;83.70;;;;;;5073385;28;20033;-49
2020/12/08 02:45:41;;;;;;;7.80;5.65;;;5.30;84.30;;;;;;5073352;28;20033;-48
2020/12/08 02:48:08;;;;;;;7.20;5.00;;;5.30;84.00;;;;;;5073028;28;20043;-49
2020/12/08 02:50:33;;;;;;;8.80;5.60;;;5.40;84.00;;;;;;5072824;28;20074;-48
2020/12/08 02:52:59;;;;;;;7.55;5.55;;;5.30;83.60;;;;;;5072955;28;20407;-49
2020/12/08 02:55:25;;;;;;;8.52;5.45;;;5.50;83.30;;;;;;5073007;28;20040;-49
2020/12/08 02:57:51;;;;;;;9.88;6.20;;;5.30;83.20;;;;;;5073007;28;20488;-49
2020/12/08 03:00:17;;;;;;;8.20;5.07;;;5.30;84.00;;;;;;5072743;28;20045;-49
2020/12/08 03:02:42;;;;;;;8.32;5.68;;;5.20;83.70;;;;;;5073070;28;20094;-49
2020/12/08 03:05:08;;;;;;;7.95;5.50;;;5.10;84.40;;;;;;5071105;28;20045;-48
2020/12/08 03:07:34;;;;;;;8.00;5.38;;;5.00;84.90;;;;;;5072613;28;20115;-48
2020/12/08 03:09:59;;;;;;;6.70;5.07;;;4.80;85.70;;;;;;5055059;28;20423;-48
2020/12/08 03:12:25;;;;;;;8.73;5.50;;;4.80;85.90;;;;;;5072710;28;20028;-48
2020/12/08 03:14:53;;;;;;;9.43;5.90;;;4.70;86.60;;;;;;5072942;28;20064;-48
2020/12/08 03:17:19;;;;;;;7.18;5.43;;;4.70;86.90;;;;;;5072994;28;20074;-48
2020/12/08 03:19:45;;;;;;;8.90;5.25;;;4.80;86.40;;;;;;5072716;28;20428;-48
2020/12/08 03:22:10;;;;;;;7.00;5.38;;;4.80;86.30;;;;;;5054324;28;20395;-48
2020/12/08 03:24:36;;;;;;;8.32;5.05;;;4.80;86.10;;;;;;5072700;28;20033;-48
2020/12/08 03:27:02;;;;;;;6.93;4.80;;;4.80;85.70;;;;;;5072689;28;20556;-48
2020/12/08 03:29:28;;;;;;;7.40;5.43;;;4.90;85.00;;;;;;5073508;28;20054;-48
2020/12/08 03:31:53;;;;;;;9.93;5.38;;;5.10;84.60;;;;;;5076581;28;20360;-48
2020/12/08 03:34:19;;;;;;;7.93;5.55;;;5.10;84.40;;;;;;5076520;28;20461;-48
2020/12/08 03:36:45;;;;;;;10.45;8.70;;;5.10;83.50;;;;;;5076107;28;20426;-48
2020/12/08 03:39:11;;;;;;;10.98;7.93;;;4.80;84.30;;;;;;5076218;28;20044;-49
2020/12/08 03:41:36;;;;;;;8.13;5.97;;;4.90;84.50;;;;;;5076011;28;20478;-49
2020/12/08 03:44:02;;;;;;;8.05;5.25;;;4.90;83.70;;;;;;5040850;28;20041;-48
2020/12/08 03:46:28;;;;;;;7.47;4.97;;;5.00;84.00;;;;;;5076042;28;20039;-48
2020/12/08 03:48:54;;;;;;;7.57;4.78;;;4.80;84.40;;;;;;5076207;28;20110;-48
2020/12/08 03:51:21;;;;;;;7.32;5.30;;;4.80;84.80;;;;;;5076015;28;20052;-49
2020/12/08 03:53:47;;;;;;;7.10;5.20;;;4.80;84.90;;;;;;5075821;28;20043;-49
2020/12/08 03:56:15;;;;;;;5.63;4.45;;;4.80;85.20;;;;;;5075723;28;20040;-49
2020/12/08 03:58:41;;;;;;;6.70;4.68;;;4.90;84.50;;;;;;5075703;28;20024;-48
2020/12/08 04:01:12;;;;;;;7.63;4.32;;;4.80;84.60;;;;;;5075885;28;20051;-48
2020/12/08 04:03:38;;;;;;;7.20;4.30;;;4.70;85.10;;;;;;5075739;28;20024;-48
2020/12/08 04:06:04;;;;;;;6.85;4.75;;;4.60;85.50;;;;;;5075673;28;20453;-48
2020/12/08 04:08:30;;;;;;;5.47;4.32;;;4.60;85.70;;;;;;5075531;28;20056;-48
2020/12/08 04:10:56;;;;;;;5.25;3.83;;;4.90;84.30;;;;;;5023989;28;20139;-48
2020/12/08 04:13:22;;;;;;;6.15;4.28;;;4.90;83.70;;;;;;5075632;28;20033;-49
2020/12/08 04:15:48;;;;;;;8.52;4.75;;;4.70;84.00;;;;;;5075774;28;20459;-49
2020/12/08 04:18:15;;;;;;;7.13;4.72;;;4.80;84.30;;;;;;5075687;28;20089;-48
2020/12/08 04:20:44;;;;;;;7.63;4.70;;;4.80;84.10;;;;;;5040317;28;20129;-49
2020/12/08 04:23:12;;;;;;;6.05;4.68;;;4.80;84.50;;;;;;5075425;28;20043;-48
2020/12/08 04:25:39;;;;;;;9.18;5.78;;;4.70;84.60;;;;;;5075631;28;20039;-49
2020/12/08 04:28:05;;;;;;;11.82;7.55;;;4.70;84.10;;;;;;5075183;28;20037;-49
2020/12/08 04:30:32;;;;;;;8.65;5.53;;;4.80;84.10;;;;;;5075509;28;20119;-49
2020/12/08 04:32:58;;;;;;;7.30;4.15;;;4.70;83.80;;;;;;5075268;28;20040;-49
2020/12/08 04:35:24;;;;;;;6.55;4.68;;;4.50;84.40;;;;;;5075331;28;20044;-48
2020/12/08 04:37:49;;;;;;;8.93;5.93;;;4.50;85.50;;;;;;5075345;28;20032;-48
2020/12/08 04:40:15;;;;;;;7.82;4.88;;;;;;;;;;5075303;28;20460;-48
2020/12/08 04:42:48;;;;;;;7.18;5.15;;;4.60;94.30;;;;;;5074724;28;20029;-49
2020/12/08 04:45:15;;;;;;;6.65;5.30;;;4.30;85.80;;;;;;5023414;28;20068;-48
2020/12/08 04:47:45;;;;;;;6.60;4.57;;;4.30;86.00;;;;;;5075261;28;20032;-48
2020/12/08 04:50:13;;;;;;;6.65;4.40;;;4.20;86.40;;;;;;5071544;28;20035;-49
2020/12/08 04:52:39;;;;;;;7.50;4.88;;;4.30;86.20;;;;;;5075080;28;20025;-48
2020/12/08 04:55:05;;;;;;;6.05;4.00;;;4.30;85.90;;;;;;5074722;28;20035;-48
2020/12/08 04:57:31;;;;;;;5.88;4.35;;;4.30;86.30;;;;;;5074774;28;20020;-49
2020/12/08 05:00:05;;;;;;;5.20;3.90;;;4.10;86.40;;;;;;5074715;28;20039;-49
2020/12/08 05:02:30;;;;;;;6.15;4.50;;;3.90;87.20;;;;;;5074744;28;20512;-48
2020/12/08 05:04:56;;;;;;;7.20;5.00;;;3.90;87.00;;;;;;5074754;28;20120;-48
2020/12/08 05:07:29;;;;;;;7.90;5.30;;;3.80;87.70;;;;;;5074313;28;20048;-48
2020/12/08 05:09:54;;;;;;;;;;;3.70;88.20;;;;;;5075502;28;20020;-48
2020/12/08 05:12:24;;;;;;;7.85;5.80;;;3.60;88.80;;;;;;5052745;28;20237;-48
2020/12/08 05:14:51;;;;;;;11.50;6.25;;;3.50;89.20;;;;;;5074718;28;20025;-48
2020/12/08 05:17:21;;;;;;;8.77;6.05;;;3.60;89.20;;;;;;5074461;28;20603;-48
2020/12/08 05:19:48;;;;;;;7.72;5.70;;;3.60;88.70;;;;;;5074317;28;20522;-49
2020/12/08 05:22:13;;;;;;;8.23;5.68;;;3.60;89.20;;;;;;5074132;28;20465;-48
2020/12/08 05:24:39;;;;;;;9.23;5.90;;;3.70;88.40;;;;;;5074581;28;20036;-48
2020/12/08 05:27:06;;;;;;;9.15;5.78;;;3.80;88.20;;;;;;5074117;28;20542;-49
2020/12/08 05:29:33;;;;;;;10.63;6.28;;;3.80;87.50;;;;;;5074363;28;20467;-48
2020/12/08 05:32:23;;;;;;;10.13;6.95;;;3.70;87.70;;;;;;5073936;28;20025;-48
2020/12/08 05:34:52;;;;;;;9.65;6.20;;;3.80;87.50;;;;;;5073476;28;20024;-48
2020/12/08 05:37:19;;;;;;;10.55;7.22;;;3.80;87.70;;;;;;5074201;28;20032;-51
2020/12/08 05:39:47;;;;;;;11.20;6.45;;;3.70;88.20;;;;;;5073970;28;20112;-49
2020/12/08 05:42:20;;;;;;;9.10;6.55;;;3.90;87.90;;;;;;5073417;28;20043;-49
2020/12/08 05:44:51;;;;;;;12.02;7.55;;;4.10;86.70;;;;;;5073760;28;20036;-48
2020/12/08 05:47:21;;;;;;;15.68;9.18;;;4.00;86.30;;;;;;5073641;28;20039;-49
2020/12/08 05:50:00;;;;;;;15.45;9.60;;;3.90;87.30;;;;;;5040307;28;20044;-51
2020/12/08 05:52:38;;;;;;;13.13;7.88;;;3.70;87.80;;;;;;5073992;28;20052;-49
2020/12/08 05:55:15;;;;;;;11.30;6.20;;;3.80;88.00;;;;;;5073700;28;20075;-50
2020/12/08 05:57:42;;;;;;;10.07;6.28;;;3.70;87.50;;;;;;5074463;28;20028;-49
2020/12/08 06:00:20;;;;;;;10.95;6.97;;;3.80;87.70;;;;;;5074657;28;20365;-49
2020/12/08 06:02:46;;;;;;;13.90;8.43;;;3.90;87.20;;;;;;5073870;28;20036;-48
2020/12/08 06:05:12;;;;;;;10.15;6.97;;;3.80;87.40;;;;;;5073578;28;20399;-48
2020/12/08 06:07:38;;;;;;;12.30;6.78;;;3.80;88.00;;;;;;5073212;28;20491;-49
2020/12/08 06:10:08;;;;;;;19.92;10.57;;;3.80;87.50;;;;;;5054752;28;20102;-50
2020/12/08 06:12:35;;;;;;;39.13;20.90;;;3.80;87.50;;;;;;5072738;28;20063;-48
2020/12/08 06:15:01;;;;;;;52.85;29.60;;;3.80;87.50;;;;;;5073723;28;20024;-46
2020/12/08 06:17:28;;;;;;;26.50;16.35;;;3.80;87.20;;;;;;5073315;28;20134;-46
2020/12/08 06:19:54;;;;;;;15.50;9.60;;;3.90;86.40;;;;;;5073600;28;20118;-46
2020/12/08 06:22:19;;;;;;;11.98;8.57;;;4.00;86.30;;;;;;5021793;28;20078;-45
2020/12/08 06:24:53;;;;;;;14.75;10.48;;;3.90;86.50;;;;;;5073240;28;20028;-45
2020/12/08 06:27:20;;;;;;;16.77;14.25;;;4.00;86.90;;;;;;5073396;28;20040;-46
2020/12/08 06:29:52;;;;;;;11.05;8.32;;;4.00;87.00;;;;;;5054673;28;20037;-46
2020/12/08 06:32:31;;;;;;;10.50;8.23;;;3.90;87.30;;;;;;5037949;28;20047;-46
2020/12/08 06:35:05;;;;;;;10.93;8.32;;;4.00;86.60;;;;;;5070212;28;20028;-47
2020/12/08 06:37:31;;;;;;;9.70;7.30;;;4.10;86.40;;;;;;5073282;28;20032;-46
2020/12/08 06:40:11;;;;;;;16.08;13.55;;;4.20;86.00;;;;;;5073131;28;20032;-46
2020/12/08 06:42:37;;;;;;;14.48;11.10;;;4.70;86.00;;;;;;5073212;28;20376;-47
2020/12/08 06:45:11;;;;;;;12.65;9.40;;;6.30;80.10;;;;;;5037999;28;20036;-47
2020/12/08 06:47:37;;;;;;;18.58;12.02;;;7.70;79.40;;;;;;5072605;28;20376;-46
2020/12/08 06:50:04;;;;;;;11.48;7.93;;;9.30;72.10;;;;;;5021438;28;20036;-46
2020/12/08 06:52:30;;;;;;;10.05;7.93;;;10.80;70.40;;;;;;5037545;28;20127;-47
2020/12/08 06:54:57;;;;;;;11.85;8.40;;;10.90;60.70;;;;;;5072987;28;20155;-47
2020/12/08 06:57:23;;;;;;;13.75;9.50;;;11.10;60.50;;;;;;5037753;28;20044;-47
2020/12/08 06:59:49;;;;;;;10.77;8.25;;;11.60;58.90;;;;;;5021296;28;20040;-46
2020/12/08 07:02:15;;;;;;;8.85;6.47;;;11.70;60.10;;;;;;5073143;28;20028;-47
2020/12/08 07:04:41;;;;;;;9.35;7.38;;;12.30;59.50;;;;;;5022595;28;20032;-47
2020/12/08 07:07:07;;;;;;;16.67;13.02;;;13.30;55.80;;;;;;5076675;28;20044;-46
2020/12/08 07:09:33;;;;;;;12.73;9.40;;;14.80;52.90;;;;;;5076656;28;20357;-46
2020/12/08 07:12:03;;;;;;;12.90;9.55;;;15.70;51.70;;;;;;5076957;28;20032;-46
2020/12/08 07:14:29;;;;;;;14.23;9.57;;;16.80;45.80;;;;;;5076865;28;20465;-46
2020/12/08 07:16:55;;;;;;;24.50;17.30;;;17.50;44.50;;;;;;5076558;28;20036;-44
2020/12/08 07:19:20;;;;;;;19.10;14.68;;;19.10;68.90;;;;;;5076515;28;20035;-45
2020/12/08 07:22:08;;;;;;;19.20;14.50;;;19.10;41.50;;;;;;5058628;28;20071;-45
2020/12/08 07:24:42;;;;;;;12.77;10.18;;;19.50;40.20;;;;;;5076627;28;20055;-44
2020/12/08 07:27:09;;;;;;;11.75;9.63;;;18.80;40.50;;;;;;5076465;28;20082;-46
2020/12/08 07:29:35;;;;;;;13.55;8.68;;;19.20;38.30;;;;;;5076431;28;20017;-46
2020/12/08 07:32:01;;;;;;;10.07;8.13;;;19.50;37.50;;;;;;5076431;28;20538;-46
2020/12/08 07:34:26;;;;;;;8.77;6.60;;;19.40;39.10;;;;;;5076333;28;20032;-46
2020/12/08 07:36:52;;;;;;;11.05;7.95;;;18.70;38.60;;;;;;5076633;28;20067;-45
2020/12/08 07:39:19;;;;;;;9.38;7.15;;;18.50;38.50;;;;;;5024390;28;20032;-46
2020/12/08 07:41:45;;;;;;;11.20;7.78;;;18.20;39.10;;;;;;5076157;28;20447;-46
2020/12/08 07:44:13;;;;;;;9.02;7.07;;;16.20;42.10;;;;;;5076324;28;20029;-46
2020/12/08 07:46:47;;;;;;;10.13;8.68;;;16.80;42.60;;;;;;5040629;28;20033;-46
2020/12/08 07:49:13;;;;;;;11.25;7.68;;;15.80;43.90;;;;;;5056942;28;20059;-47
2020/12/08 07:51:39;;;;;;;12.65;8.70;;;15.50;44.40;;;;;;5075951;28;20025;-44
2020/12/08 07:54:06;;;;;;;10.40;7.82;;;17.00;43.80;;;;;;5075842;28;20419;-44
2020/12/08 07:56:34;;;;;;;10.10;8.43;;;16.00;44.50;;;;;;5076166;28;20031;-45
2020/12/08 07:59:00;;;;;;;10.65;8.48;;;16.90;42.40;;;;;;5057084;28;20032;-45
2020/12/08 08:01:27;;;;;;;11.20;9.70;;;18.00;41.20;;;;;;5075672;28;20078;-46
2020/12/08 08:03:53;;;;;;;11.90;9.20;;;18.00;41.30;;;;;;5075982;28;20480;-44
2020/12/08 08:06:22;;;;;;;9.73;8.27;;;18.00;40.00;;;;;;5075764;28;20028;-45
2020/12/08 08:08:49;;;;;;;10.45;7.97;;;18.40;39.60;;;;;;5075362;28;20380;-44
2020/12/08 08:11:15;;;;;;;11.65;9.35;;;16.40;42.70;;;;;;5056881;28;20033;-45
2020/12/08 08:13:41;;;;;;;11.88;9.75;;;16.20;43.30;;;;;;5075730;28;20028;-44
2020/12/08 08:16:11;;;;;;;11.40;10.20;;;17.00;42.80;;;;;;5074530;28;20119;-45
2020/12/08 08:18:38;;;;;;;12.20;10.02;;;15.80;43.10;;;;;;5075722;28;20029;-44
2020/12/08 08:21:04;;;;;;;10.85;9.23;;;;;;;;;;5075415;28;20388;-44
2020/12/08 08:23:30;;;;;;;10.63;9.27;;;16.20;43.80;;;;;;5075397;28;20032;-45
2020/12/08 08:25:57;;;;;;;14.70;13.18;;;16.70;43.40;;;;;;5075485;28;20029;-45
2020/12/08 08:28:23;;;;;;;13.07;11.68;;;15.20;44.40;;;;;;5075722;28;20074;-44
2020/12/08 08:30:49;;;;;;;14.48;12.40;;;14.70;47.10;;;;;;5075201;28;20021;-44
2020/12/08 08:33:15;;;;;;;24.83;20.88;;;16.80;45.60;;;;;;5057393;28;20044;-45
2020/12/08 08:35:41;;;;;;;18.10;16.20;;;16.60;44.40;;;;;;5075385;28;20154;-45
2020/12/08 08:38:06;;;;;;;16.20;13.35;;;15.00;46.70;;;;;;5075159;28;20039;-45
2020/12/08 08:40:32;;;;;;;15.05;11.63;;;16.00;46.20;;;;;;5074940;28;20457;-45
2020/12/08 08:42:59;;;;;;;20.15;17.48;;;16.10;44.80;;;;;;5073842;28;20036;-45
2020/12/08 08:45:25;;;;;;;16.55;14.88;;;15.70;46.50;;;;;;5055012;28;20103;-44
2020/12/08 08:47:51;;;;;;;19.75;18.10;;;15.60;46.00;;;;;;5054901;28;20053;-46
2020/12/08 08:50:17;;;;;;;21.00;19.50;;;14.80;47.40;;;;;;5019737;28;20051;-45
2020/12/08 08:52:43;;;;;;;14.10;13.00;;;13.40;50.50;;;;;;5019362;28;20550;-46
2020/12/08 08:55:10;;;;;;;26.55;24.90;;;14.20;51.00;;;;;;5055020;28;20021;-44
2020/12/08 08:57:39;;;;;;;24.92;23.42;;;13.50;50.80;;;;;;5054973;28;20029;-44
2020/12/08 09:00:14;;;;;;;13.65;12.50;;;13.60;51.20;;;;;;5054563;28;20128;-45
2020/12/08 09:02:39;;;;;;;34.58;32.47;;;15.30;49.10;;;;;;5054987;28;20100;-44
2020/12/08 09:05:06;;;;;;;16.55;14.95;;;13.70;50.60;;;;;;5019630;28;20132;-47
2020/12/08 09:07:32;;;;;;;49.95;47.28;;;15.40;49.10;;;;;;5054546;28;20056;-48
2020/12/08 09:09:58;;;;;;;29.27;27.23;;;13.40;51.80;;;;;;5054486;28;20048;-45
2020/12/08 09:12:24;;;;;;;52.90;50.17;;;13.90;52.10;;;;;;5054985;28;20035;-45
2020/12/08 09:14:54;;;;;;;32.38;30.38;;;12.40;54.80;;;;;;5054397;28;20060;-48
2020/12/08 09:17:19;;;;;;;52.00;49.22;;;12.50;56.00;;;;;;5054490;28;20060;-46
2020/12/08 09:19:45;;;;;;;38.25;36.00;;;12.40;56.50;;;;;;5054358;28;20480;-47
2020/12/08 09:22:11;;;;;;;71.30;67.68;;;12.90;55.20;;;;;;5054457;28;20029;-47
2020/12/08 09:24:37;;;;;;;22.90;21.30;;;12.80;55.70;;;;;;4986845;28;20072;-48
2020/12/08 09:27:04;;;;;;;32.25;30.20;;;14.20;53.60;;;;;;5054239;28;20535;-43
2020/12/08 09:29:30;;;;;;;82.43;78.22;;;14.30;51.90;;;;;;5054208;28;20029;-44
2020/12/08 09:31:56;;;;;;;35.45;33.15;;;14.20;51.30;;;;;;5053671;28;20047;-43
2020/12/08 09:34:23;;;;;;;43.53;40.60;;;14.30;52.30;;;;;;5054283;28;20074;-44
2020/12/08 09:36:50;;;;;;;43.28;40.75;;;14.90;50.90;;;;;;5019020;28;20056;-43
2020/12/08 09:39:15;;;;;;;40.33;37.72;;;15.20;50.20;;;;;;5018684;28;20119;-44
2020/12/08 09:41:42;;;;;;;66.88;63.33;;;15.50;48.50;;;;;;5018979;28;20120;-44
2020/12/08 09:44:10;;;;;;;108.15;102.72;;;14.90;49.50;;;;;;5054034;28;20449;-45
2020/12/08 09:46:37;;;;;;;78.78;74.72;;;14.00;51.90;;;;;;5054020;28;20041;-43
2020/12/08 09:49:03;;;;;;;238.23;226.73;;;13.50;53.80;;;;;;5018683;28;20032;-43
2020/12/08 09:51:30;;;;;;;66.85;63.22;;;12.90;54.80;;;;;;5035798;28;20029;-43
2020/12/08 09:53:55;;;;;;;71.38;67.53;;;13.70;54.20;;;;;;5053804;28;20103;-44
2020/12/08 09:56:21;;;;;;;40.75;38.20;;;14.40;52.70;;;;;;5054031;28;20403;-43
2020/12/08 09:58:47;;;;;;;30.02;28.02;;;;;;;;;;5053680;28;20029;-44
2020/12/08 10:01:13;;;;;;;53.80;50.85;;;17.30;47.70;;;;;;4969776;28;20095;-45
2020/12/08 10:03:39;;;;;;;276.85;109.28;;;16.10;47.80;;;;;;5053838;28;20468;-44
2020/12/08 10:06:04;;;;;;;127.07;117.93;;;17.30;46.80;;;;;;5053536;28;20036;-45
2020/12/08 10:08:31;;;;;;;110.85;103.13;;;18.00;43.50;;;;;;5018121;28;20052;-45
2020/12/08 10:10:56;;;;;;;210.73;199.45;;;18.00;43.30;;;;;;5053562;28;20079;-44
2020/12/08 10:13:22;;;;;;;51.20;46.40;;;17.50;43.50;;;;;;5053675;28;20021;-45
2020/12/08 10:15:48;;;;;;;85.20;79.60;;;17.60;44.20;;;;;;5053487;28;20064;-44
2020/12/08 10:18:13;;;;;;;45.45;38.00;;;17.90;43.90;;;;;;5060676;28;20032;-45
2020/12/08 10:20:39;;;;;;;63.03;59.78;;;18.10;44.20;;;;;;5021592;28;20041;-44
2020/12/08 10:23:06;;;;;;;139.27;132.63;;;18.10;43.60;;;;;;5073518;28;20134;-44
2020/12/08 10:25:33;;;;;;;47.03;44.38;;;17.90;42.60;;;;;;5073630;28;20468;-43
2020/12/08 10:27:59;;;;;;;120.20;114.63;;;18.40;42.50;;;;;;5073163;28;20024;-46
2020/12/08 10:30:25;;;;;;;87.95;83.55;;;17.40;43.60;;;;;;5073345;28;20067;-47
2020/12/08 10:32:51;;;;;;;91.82;87.20;;;17.30;44.50;;;;;;5073503;28;20459;-48
2020/12/08 10:35:17;;;;;;;114.43;108.85;;;17.60;43.90;;;;;;5073624;28;20115;-47
2020/12/08 10:37:43;;;;;;;95.63;90.82;;;17.50;43.90;;;;;;5073332;28;20024;-47
2020/12/08 10:40:09;;;;;;;47.20;44.63;;;16.00;46.30;;;;;;5075307;28;20119;-47
2020/12/08 10:42:34;;;;;;;50.75;47.95;;;16.00;55.40;;;;;;5077638;28;20070;-47
2020/12/08 10:45:00;;;;;;;30.83;28.77;;;15.90;48.90;;;;;;5025608;28;20036;-47
2020/12/08 10:47:27;;;;;;;65.65;62.15;;;16.00;48.60;;;;;;5076141;28;20086;-46
2020/12/08 10:49:54;;;;;;;71.70;67.70;;;15.30;49.80;;;;;;5041900;28;20041;-47
2020/12/08 10:52:21;;;;;;;46.55;43.63;;;16.20;48.40;;;;;;5041820;28;20036;-46
2020/12/08 10:54:47;;;;;;;30.30;28.23;;;16.20;48.20;;;;;;5076996;28;20034;-47
2020/12/08 10:57:13;;;;;;;14.52;13.13;;;17.00;47.50;;;;;;5076992;28;20020;-48
2020/12/08 10:59:39;;;;;;;12.95;11.75;;;16.20;47.10;;;;;;5041266;28;20074;-48
2020/12/08 11:02:04;;;;;;;17.17;15.48;;;15.80;48.00;;;;;;5077226;28;20032;-49
2020/12/08 11:04:30;;;;;;;26.80;24.83;;;15.80;48.40;;;;;;5077196;28;20029;-47
2020/12/08 11:06:57;;;;;;;50.78;47.83;;;16.40;48.40;;;;;;5076375;28;20025;-47
2020/12/08 11:09:24;;;;;;;43.25;40.80;;;;;;;;;;5076998;28;20112;-47
2020/12/08 11:11:49;;;;;;;20.08;18.38;;;15.60;48.90;;;;;;5077037;28;20047;-46
2020/12/08 11:14:15;;;;;;;35.70;33.15;;;;;;;;;;5041238;28;20461;-47
2020/12/08 11:16:41;;;;;;;25.88;23.92;;;16.70;46.70;;;;;;5076941;28;20446;-47
2020/12/08 11:19:07;;;;;;;18.83;17.02;;;16.60;46.90;;;;;;5076696;28;20059;-47
2020/12/08 11:21:33;;;;;;;36.60;33.97;;;16.40;47.80;;;;;;5041027;28;20090;-46
2020/12/08 11:23:59;;;;;;;35.42;33.10;;;16.80;47.30;;;;;;5076510;28;20124;-45
2020/12/08 11:26:25;;;;;;;15.73;14.18;;;16.90;46.60;;;;;;5076810;28;20025;-47
2020/12/08 11:28:51;;;;;;;36.75;34.42;;;16.80;46.60;;;;;;5040784;28;20040;-47
2020/12/08 11:31:18;;;;;;;19.33;17.58;;;16.30;46.90;;;;;;5007848;28;20383;-48
2020/12/08 11:33:47;;;;;;;25.73;23.58;;;16.40;48.20;;;;;;5076568;28;20459;-47
2020/12/08 11:36:13;;;;;;;37.85;35.40;;;16.20;48.30;;;;;;5076155;28;20051;-47
2020/12/08 11:38:39;;;;;;;31.58;29.27;;;15.50;49.70;;;;;;5073332;28;20078;-47
2020/12/08 11:41:05;;;;;;;15.05;13.45;;;15.70;55.80;;;;;;5075334;28;20411;-47
2020/12/08 11:43:31;;;;;;;16.75;15.02;;;15.70;58.60;;;;;;5038291;28;20036;-47
2020/12/08 11:45:58;;;;;;;19.23;17.58;;;15.60;54.20;;;;;;5073316;28;20032;-48
2020/12/08 11:48:25;;;;;;;12.70;10.50;;;14.90;52.50;;;;;;5024327;28;20060;-45
2020/12/08 11:50:52;;;;;;;11.93;8.85;;;15.20;52.20;;;;;;5075771;28;20028;-46
2020/12/08 11:53:18;;;;;;;14.95;9.70;;;14.60;53.50;;;;;;5040674;28;20037;-45
2020/12/08 11:55:44;;;;;;;14.45;10.27;;;13.80;55.10;;;;;;5057752;28;20037;-43
2020/12/08 11:58:10;;;;;;;12.82;9.75;;;13.90;55.50;;;;;;5023744;28;20086;-44
2020/12/08 12:00:36;;;;;;;18.60;12.07;;;14.20;55.60;;;;;;5075883;28;20040;-46
2020/12/08 12:03:01;;;;;;;14.18;11.23;;;14.30;55.80;;;;;;5075718;28;20051;-45
2020/12/08 12:05:27;;;;;;;12.50;9.20;;;14.70;54.60;;;;;;5075569;28;20111;-45
2020/12/08 12:07:53;;;;;;;13.65;10.18;;;14.30;54.60;;;;;;5075397;28;20067;-46
2020/12/08 12:10:18;;;;;;;13.05;8.98;;;14.30;55.30;;;;;;5075331;28;20099;-43
2020/12/08 12:12:44;;;;;;;15.25;9.75;;;13.70;55.90;;;;;;5075386;28;20036;-46
2020/12/08 12:15:10;;;;;;;16.23;10.75;;;13.40;57.10;;;;;;5075742;28;20021;-42
2020/12/08 12:17:35;;;;;;;14.15;10.43;;;13.40;57.70;;;;;;5023734;28;20036;-47
2020/12/08 12:20:03;;;;;;;20.63;12.80;;;13.60;57.80;;;;;;5074887;28;20052;-49
2020/12/08 12:22:29;;;;;;;15.00;10.15;;;13.80;57.00;;;;;;5075358;28;20032;-49
2020/12/08 12:24:55;;;;;;;15.30;10.05;;;14.20;56.50;;;;;;5075673;28;20479;-48
2020/12/08 12:27:21;;;;;;;16.33;10.60;;;14.30;55.50;;;;;;5075221;28;20031;-48
2020/12/08 12:29:47;;;;;;;18.95;11.23;;;14.40;55.90;;;;;;5075297;28;20060;-49
2020/12/08 12:32:14;;;;;;;12.63;9.25;;;14.50;55.80;;;;;;5075339;28;20058;-48
2020/12/08 12:34:40;;;;;;;16.80;8.85;;;14.40;55.40;;;;;;5075111;28;20154;-49
2020/12/08 12:37:06;;;;;;;12.85;7.82;;;14.50;55.30;;;;;;5075126;28;20454;-50
2020/12/08 12:39:31;;;;;;;13.57;9.00;;;14.00;56.00;;;;;;5039739;28;20028;-49
2020/12/08 12:41:57;;;;;;;12.30;8.85;;;14.20;56.00;;;;;;5074911;28;20036;-50